sensor_id;sensor_type;location;lat;lon;timestamp;pressure;altitude;pressure_sealevel;temperature;humidity
27304;BME280;14791;52.392;13.092;2022-10-17T00:01:20;101783.70;;;20.38;46.15
27304;BME280;14791;52.392;13.092;2022-10-17T00:03:48;101785.92;;;20.38;46.16
27304;BME280;14791;52.392;13.092;2022-10-17T00:06:17;101781.73;;;20.40;46.15
27304;BME280;14791;52.392;13.092;2022-10-17T00:08:46;101769.87;;;20.41;46.17
27304;BME280;14791;52.392;13.092;2022-10-17T00:11:23;101777.73;;;20.44;46.15
27304;BME280;14791;52.392;13.092;2022-10-17T00:13:48;101782.30;;;20.44;46.14
27304;BME280;14791;52.392;13.092;2022-10-17T00:16:23;101781.30;;;20.45;46.11
27304;BME280;14791;52.392;13.092;2022-10-17T00:18:52;101793.03;;;20.45;46.06
27304;BME280;14791;52.392;13.092;2022-10-17T00:21:22;101808.94;;;20.44;46.06
27304;BME280;14791;52.392;13.092;2022-10-17T00:23:52;101801.30;;;20.44;46.11
27304;BME280;14791;52.392;13.092;2022-10-17T00:26:21;101800.56;;;20.42;46.16
27304;BME280;14791;52.392;13.092;2022-10-17T00:28:51;101793.28;;;20.42;46.20
27304;BME280;14791;52.392;13.092;2022-10-17T00:31:21;101784.16;;;20.43;46.19
27304;BME280;14791;52.392;13.092;2022-10-17T00:33:51;101791.92;;;20.42;46.22
27304;BME280;14791;52.392;13.092;2022-10-17T00:36:23;101790.56;;;20.42;46.19
27304;BME280;14791;52.392;13.092;2022-10-17T00:38:56;101789.59;;;20.43;46.28
27304;BME280;14791;52.392;13.092;2022-10-17T00:41:27;101788.08;;;20.45;46.31
27304;BME280;14791;52.392;13.092;2022-10-17T00:43:59;101795.38;;;20.44;46.38
27304;BME280;14791;52.392;13.092;2022-10-17T00:46:33;101792.66;;;20.44;46.40
27304;BME280;14791;52.392;13.092;2022-10-17T00:49:10;101790.33;;;20.45;46.41
27304;BME280;14791;52.392;13.092;2022-10-17T00:51:48;101789.94;;;20.44;46.36
27304;BME280;14791;52.392;13.092;2022-10-17T00:54:07;101790.80;;;20.45;46.36
27304;BME280;14791;52.392;13.092;2022-10-17T00:56:37;101789.59;;;20.43;46.30
27304;BME280;14791;52.392;13.092;2022-10-17T00:59:08;101791.92;;;20.42;46.25
27304;BME280;14791;52.392;13.092;2022-10-17T01:01:40;101782.42;;;20.42;46.22
27304;BME280;14791;52.392;13.092;2022-10-17T01:04:10;101779.86;;;20.40;46.20
27304;BME280;14791;52.392;13.092;2022-10-17T01:06:39;101774.56;;;20.39;46.21
27304;BME280;14791;52.392;13.092;2022-10-17T01:09:08;101776.55;;;20.37;46.15
27304;BME280;14791;52.392;13.092;2022-10-17T01:11:51;101779.53;;;20.34;46.25
27304;BME280;14791;52.392;13.092;2022-10-17T01:14:27;101780.94;;;20.28;46.33
27304;BME280;14791;52.392;13.092;2022-10-17T01:30:53;101771.05;;;20.06;46.40
27304;BME280;14791;52.392;13.092;2022-10-17T01:36:18;101771.48;;;19.96;46.49
27304;BME280;14791;52.392;13.092;2022-10-17T01:38:54;101765.59;;;19.91;46.48
27304;BME280;14791;52.392;13.092;2022-10-17T01:41:46;101761.06;;;19.86;46.59
27304;BME280;14791;52.392;13.092;2022-10-17T01:47:12;101766.40;;;19.76;46.73
27304;BME280;14791;52.392;13.092;2022-10-17T01:49:42;101764.20;;;19.70;46.73
27304;BME280;14791;52.392;13.092;2022-10-17T01:52:26;101769.00;;;19.66;46.88
27304;BME280;14791;52.392;13.092;2022-10-17T01:55:02;101764.93;;;19.61;46.98
27304;BME280;14791;52.392;13.092;2022-10-17T01:57:34;101757.18;;;19.56;46.99
27304;BME280;14791;52.392;13.092;2022-10-17T02:00:07;101756.09;;;19.53;47.10
27304;BME280;14791;52.392;13.092;2022-10-17T02:02:38;101763.13;;;19.50;47.17
27304;BME280;14791;52.392;13.092;2022-10-17T02:05:09;101760.69;;;19.47;47.23
27304;BME280;14791;52.392;13.092;2022-10-17T02:07:40;101749.34;;;19.42;47.31
27304;BME280;14791;52.392;13.092;2022-10-17T02:10:20;101753.67;;;19.39;47.43
27304;BME280;14791;52.392;13.092;2022-10-17T02:13:01;101752.94;;;19.37;47.56
27304;BME280;14791;52.392;13.092;2022-10-17T02:15:33;101751.84;;;19.33;47.62
27304;BME280;14791;52.392;13.092;2022-10-17T02:21:14;101756.78;;;19.28;47.72
27304;BME280;14791;52.392;13.092;2022-10-17T02:24:09;101757.40;;;19.26;47.67
27304;BME280;14791;52.392;13.092;2022-10-17T02:26:45;101755.69;;;19.25;47.71
27304;BME280;14791;52.392;13.092;2022-10-17T02:29:16;101757.66;;;19.23;47.75
27304;BME280;14791;52.392;13.092;2022-10-17T02:31:53;101753.22;;;19.22;47.87
27304;BME280;14791;52.392;13.092;2022-10-17T02:34:33;101752.36;;;19.22;48.04
27304;BME280;14791;52.392;13.092;2022-10-17T02:37:04;101748.30;;;19.22;48.20
27304;BME280;14791;52.392;13.092;2022-10-17T02:39:34;101736.00;;;19.23;48.25
27304;BME280;14791;52.392;13.092;2022-10-17T02:42:06;101734.64;;;19.23;48.36
27304;BME280;14791;52.392;13.092;2022-10-17T02:44:38;101730.08;;;19.24;48.40
27304;BME280;14791;52.392;13.092;2022-10-17T02:49:54;101731.94;;;19.23;48.61
27304;BME280;14791;52.392;13.092;2022-10-17T02:52:35;101738.70;;;19.23;48.71
27304;BME280;14791;52.392;13.092;2022-10-17T02:55:16;101738.55;;;19.25;48.82
27304;BME280;14791;52.392;13.092;2022-10-17T02:57:51;101734.38;;;19.26;48.98
27304;BME280;14791;52.392;13.092;2022-10-17T03:00:23;101745.09;;;19.28;49.01
27304;BME280;14791;52.392;13.092;2022-10-17T03:02:54;101736.82;;;19.29;49.12
27304;BME280;14791;52.392;13.092;2022-10-17T03:05:26;101737.56;;;19.31;49.13
27304;BME280;14791;52.392;13.092;2022-10-17T03:07:55;101744.45;;;19.36;49.22
27304;BME280;14791;52.392;13.092;2022-10-17T03:10:24;101741.36;;;19.40;49.25
27304;BME280;14791;52.392;13.092;2022-10-17T03:12:54;101736.06;;;19.44;49.30
27304;BME280;14791;52.392;13.092;2022-10-17T03:15:23;101729.88;;;19.48;49.40
27304;BME280;14791;52.392;13.092;2022-10-17T03:17:52;101731.86;;;19.51;49.42
27304;BME280;14791;52.392;13.092;2022-10-17T03:20:22;101729.23;;;19.55;49.41
27304;BME280;14791;52.392;13.092;2022-10-17T03:22:51;101728.49;;;19.59;49.37
27304;BME280;14791;52.392;13.092;2022-10-17T03:25:22;101734.27;;;19.60;49.43
27304;BME280;14791;52.392;13.092;2022-10-17T03:27:51;101736.70;;;19.63;49.39
27304;BME280;14791;52.392;13.092;2022-10-17T03:30:20;101739.80;;;19.64;49.42
27304;BME280;14791;52.392;13.092;2022-10-17T03:32:50;101730.20;;;19.66;49.33
27304;BME280;14791;52.392;13.092;2022-10-17T03:35:20;101723.27;;;19.67;49.26
27304;BME280;14791;52.392;13.092;2022-10-17T03:37:49;101723.69;;;19.68;49.30
27304;BME280;14791;52.392;13.092;2022-10-17T03:40:20;101719.13;;;19.69;49.30
27304;BME280;14791;52.392;13.092;2022-10-17T03:42:50;101719.97;;;19.69;49.27
27304;BME280;14791;52.392;13.092;2022-10-17T03:45:19;101717.62;;;19.70;49.38
27304;BME280;14791;52.392;13.092;2022-10-17T03:47:48;101719.47;;;19.70;49.45
27304;BME280;14791;52.392;13.092;2022-10-17T03:50:17;101709.98;;;19.70;49.46
27304;BME280;14791;52.392;13.092;2022-10-17T03:52:48;101714.44;;;19.71;49.46
27304;BME280;14791;52.392;13.092;2022-10-17T03:55:17;101721.56;;;19.72;49.50
27304;BME280;14791;52.392;13.092;2022-10-17T03:57:46;101719.70;;;19.72;49.54
27304;BME280;14791;52.392;13.092;2022-10-17T04:00:16;101719.23;;;19.73;49.53
27304;BME280;14791;52.392;13.092;2022-10-17T04:02:46;101714.16;;;19.74;49.59
27304;BME280;14791;52.392;13.092;2022-10-17T04:05:17;101712.31;;;19.74;49.61
27304;BME280;14791;52.392;13.092;2022-10-17T04:07:46;101720.44;;;19.74;49.61
27304;BME280;14791;52.392;13.092;2022-10-17T04:10:16;101721.80;;;19.74;49.62
27304;BME280;14791;52.392;13.092;2022-10-17T04:12:45;101719.08;;;19.74;49.57
27304;BME280;14791;52.392;13.092;2022-10-17T04:15:14;101712.58;;;19.71;49.55
27304;BME280;14791;52.392;13.092;2022-10-17T04:17:42;101706.92;;;19.69;49.64
27304;BME280;14791;52.392;13.092;2022-10-17T04:20:12;101705.66;;;19.67;49.66
27304;BME280;14791;52.392;13.092;2022-10-17T04:22:41;101713.55;;;19.65;49.66
27304;BME280;14791;52.392;13.092;2022-10-17T04:25:11;101710.61;;;19.62;49.75
27304;BME280;14791;52.392;13.092;2022-10-17T04:27:41;101710.88;;;19.59;49.83
27304;BME280;14791;52.392;13.092;2022-10-17T04:30:10;101706.20;;;19.55;49.88
27304;BME280;14791;52.392;13.092;2022-10-17T04:32:39;101710.03;;;19.53;49.84
27304;BME280;14791;52.392;13.092;2022-10-17T04:35:10;101704.37;;;19.50;49.96
27304;BME280;14791;52.392;13.092;2022-10-17T04:37:40;101709.56;;;19.48;50.08
27304;BME280;14791;52.392;13.092;2022-10-17T04:40:11;101706.73;;;19.44;50.09
27304;BME280;14791;52.392;13.092;2022-10-17T04:42:40;101707.35;;;19.42;50.13
27304;BME280;14791;52.392;13.092;2022-10-17T04:45:11;101712.06;;;19.40;50.16
27304;BME280;14791;52.392;13.092;2022-10-17T04:47:40;101714.66;;;19.36;50.30
27304;BME280;14791;52.392;13.092;2022-10-17T04:50:09;101713.19;;;19.31;50.38
27304;BME280;14791;52.392;13.092;2022-10-17T04:52:39;101712.95;;;19.29;50.43
27304;BME280;14791;52.392;13.092;2022-10-17T04:55:09;101712.71;;;19.26;50.50
27304;BME280;14791;52.392;13.092;2022-10-17T04:57:38;101711.12;;;19.24;50.51
27304;BME280;14791;52.392;13.092;2022-10-17T05:00:11;101706.81;;;19.21;50.58
27304;BME280;14791;52.392;13.092;2022-10-17T05:02:58;101705.73;;;19.18;50.59
27304;BME280;14791;52.392;13.092;2022-10-17T05:05:27;101706.70;;;19.17;50.61
27304;BME280;14791;52.392;13.092;2022-10-17T05:07:56;101702.90;;;19.14;50.68
27304;BME280;14791;52.392;13.092;2022-10-17T05:10:27;101703.90;;;19.13;50.78
27304;BME280;14791;52.392;13.092;2022-10-17T05:12:56;101709.78;;;19.12;50.84
27304;BME280;14791;52.392;13.092;2022-10-17T05:15:26;101705.48;;;19.10;50.95
27304;BME280;14791;52.392;13.092;2022-10-17T05:17:56;101702.42;;;19.09;51.05
27304;BME280;14791;52.392;13.092;2022-10-17T05:20:26;101703.39;;;19.08;51.05
27304;BME280;14791;52.392;13.092;2022-10-17T05:23:00;101700.83;;;19.06;51.01
27304;BME280;14791;52.392;13.092;2022-10-17T05:25:30;101694.56;;;19.06;51.06
27304;BME280;14791;52.392;13.092;2022-10-17T05:27:59;101705.51;;;19.04;51.00
27304;BME280;14791;52.392;13.092;2022-10-17T05:30:29;101709.56;;;19.04;51.12
27304;BME280;14791;52.392;13.092;2022-10-17T05:32:59;101709.06;;;19.05;51.20
27304;BME280;14791;52.392;13.092;2022-10-17T05:35:28;101708.22;;;19.04;51.20
27304;BME280;14791;52.392;13.092;2022-10-17T05:37:57;101713.39;;;19.02;51.27
27304;BME280;14791;52.392;13.092;2022-10-17T05:40:27;101719.16;;;19.03;51.34
27304;BME280;14791;52.392;13.092;2022-10-17T05:42:56;101715.71;;;19.01;51.37
27304;BME280;14791;52.392;13.092;2022-10-17T05:45:25;101714.36;;;19.01;51.41
27304;BME280;14791;52.392;13.092;2022-10-17T05:47:54;101713.39;;;19.02;51.45
27304;BME280;14791;52.392;13.092;2022-10-17T05:50:23;101710.69;;;19.02;51.49
27304;BME280;14791;52.392;13.092;2022-10-17T05:52:54;101720.16;;;19.02;51.50
27304;BME280;14791;52.392;13.092;2022-10-17T05:55:23;101725.58;;;19.02;51.56
27304;BME280;14791;52.392;13.092;2022-10-17T05:57:52;101728.28;;;19.02;51.63
27304;BME280;14791;52.392;13.092;2022-10-17T06:00:22;101728.02;;;19.05;51.70
27304;BME280;14791;52.392;13.092;2022-10-17T06:02:52;101724.34;;;19.06;51.72
27304;BME280;14791;52.392;13.092;2022-10-17T06:05:22;101735.53;;;19.07;51.73
27304;BME280;14791;52.392;13.092;2022-10-17T06:07:52;101737.63;;;19.09;51.76
27304;BME280;14791;52.392;13.092;2022-10-17T06:10:22;101737.98;;;19.10;51.76
27304;BME280;14791;52.392;13.092;2022-10-17T06:12:51;101736.51;;;19.11;51.85
27304;BME280;14791;52.392;13.092;2022-10-17T06:15:20;101740.81;;;19.14;51.94
27304;BME280;14791;52.392;13.092;2022-10-17T06:17:51;101749.67;;;19.16;52.05
27304;BME280;14791;52.392;13.092;2022-10-17T06:20:20;101753.13;;;19.18;52.06
27304;BME280;14791;52.392;13.092;2022-10-17T06:22:49;101755.92;;;19.22;52.15
27304;BME280;14791;52.392;13.092;2022-10-17T06:25:20;101750.27;;;19.25;52.11
27304;BME280;14791;52.392;13.092;2022-10-17T06:27:49;101762.20;;;19.28;52.24
27304;BME280;14791;52.392;13.092;2022-10-17T06:30:18;101763.18;;;19.33;52.28
27304;BME280;14791;52.392;13.092;2022-10-17T06:32:47;101764.38;;;19.34;52.36
27304;BME280;14791;52.392;13.092;2022-10-17T06:35:16;101767.22;;;19.39;52.41
27304;BME280;14791;52.392;13.092;2022-10-17T06:37:45;101772.76;;;19.43;52.51
27304;BME280;14791;52.392;13.092;2022-10-17T06:40:14;101775.59;;;19.47;52.58
27304;BME280;14791;52.392;13.092;2022-10-17T06:42:44;101773.97;;;19.50;52.58
27304;BME280;14791;52.392;13.092;2022-10-17T06:45:16;101770.02;;;19.54;52.59
27304;BME280;14791;52.392;13.092;2022-10-17T06:47:46;101771.47;;;19.58;52.55
27304;BME280;14791;52.392;13.092;2022-10-17T06:50:18;101768.38;;;19.63;52.58
27304;BME280;14791;52.392;13.092;2022-10-17T06:52:51;101761.22;;;19.67;52.61
27304;BME280;14791;52.392;13.092;2022-10-17T06:55:31;101771.20;;;19.72;52.59
27304;BME280;14791;52.392;13.092;2022-10-17T06:58:18;101772.56;;;19.78;52.54
27304;BME280;14791;52.392;13.092;2022-10-17T07:00:58;101774.88;;;19.83;52.47
27304;BME280;14791;52.392;13.092;2022-10-17T07:03:28;101771.28;;;19.88;52.51
27304;BME280;14791;52.392;13.092;2022-10-17T07:05:57;101781.59;;;19.94;52.53
27304;BME280;14791;52.392;13.092;2022-10-17T07:08:27;101792.20;;;19.97;52.51
27304;BME280;14791;52.392;13.092;2022-10-17T07:10:56;101793.02;;;20.03;52.54
27304;BME280;14791;52.392;13.092;2022-10-17T07:13:26;101794.36;;;20.09;52.59
27304;BME280;14791;52.392;13.092;2022-10-17T07:15:57;101798.39;;;20.14;52.51
27304;BME280;14791;52.392;13.092;2022-10-17T07:18:28;101799.36;;;20.19;52.52
27304;BME280;14791;52.392;13.092;2022-10-17T07:20:57;101794.89;;;20.24;52.42
27304;BME280;14791;52.392;13.092;2022-10-17T07:23:27;101792.64;;;20.29;52.46
27304;BME280;14791;52.392;13.092;2022-10-17T07:26:00;101806.66;;;20.34;52.41
27304;BME280;14791;52.392;13.092;2022-10-17T07:28:29;101806.15;;;20.40;52.48
27304;BME280;14791;52.392;13.092;2022-10-17T07:31:13;101805.59;;;20.46;52.49
27304;BME280;14791;52.392;13.092;2022-10-17T07:33:38;101801.00;;;20.52;52.36
27304;BME280;14791;52.392;13.092;2022-10-17T07:36:06;101796.41;;;20.58;52.15
27304;BME280;14791;52.392;13.092;2022-10-17T07:38:36;101796.75;;;20.65;52.25
27304;BME280;14791;52.392;13.092;2022-10-17T07:41:07;101804.36;;;20.71;51.92
27304;BME280;14791;52.392;13.092;2022-10-17T07:43:37;101806.39;;;20.79;52.01
27304;BME280;14791;52.392;13.092;2022-10-17T07:46:07;101803.50;;;20.86;52.11
27304;BME280;14791;52.392;13.092;2022-10-17T07:48:39;101796.53;;;20.93;52.08
27304;BME280;14791;52.392;13.092;2022-10-17T07:51:09;101799.06;;;21.00;52.07
27304;BME280;14791;52.392;13.092;2022-10-17T07:53:38;101804.14;;;21.09;51.99
27304;BME280;14791;52.392;13.092;2022-10-17T07:56:09;101804.84;;;21.17;51.69
27304;BME280;14791;52.392;13.092;2022-10-17T07:58:39;101803.64;;;21.25;51.49
27304;BME280;14791;52.392;13.092;2022-10-17T08:01:09;101796.66;;;21.32;51.14
27304;BME280;14791;52.392;13.092;2022-10-17T08:03:41;101801.80;;;21.41;51.45
27304;BME280;14791;52.392;13.092;2022-10-17T08:06:11;101796.00;;;21.50;51.27
27304;BME280;14791;52.392;13.092;2022-10-17T08:08:40;101804.67;;;21.59;51.32
27304;BME280;14791;52.392;13.092;2022-10-17T08:11:11;101806.55;;;21.68;51.48
27304;BME280;14791;52.392;13.092;2022-10-17T08:13:41;101805.70;;;21.77;51.42
27304;BME280;14791;52.392;13.092;2022-10-17T08:16:12;101804.48;;;21.85;51.44
27304;BME280;14791;52.392;13.092;2022-10-17T08:18:41;101810.42;;;21.95;51.17
27304;BME280;14791;52.392;13.092;2022-10-17T08:21:11;101810.42;;;22.04;50.72
27304;BME280;14791;52.392;13.092;2022-10-17T08:23:40;101810.08;;;22.13;50.95
27304;BME280;14791;52.392;13.092;2022-10-17T08:26:10;101804.45;;;22.20;50.83
27304;BME280;14791;52.392;13.092;2022-10-17T08:28:42;101799.13;;;22.28;50.90
27304;BME280;14791;52.392;13.092;2022-10-17T08:31:14;101808.29;;;22.37;50.64
27304;BME280;14791;52.392;13.092;2022-10-17T08:33:45;101796.80;;;22.43;50.46
27304;BME280;14791;52.392;13.092;2022-10-17T08:36:17;101804.73;;;22.50;49.94
27304;BME280;14791;52.392;13.092;2022-10-17T08:38:47;101797.35;;;22.57;50.21
27304;BME280;14791;52.392;13.092;2022-10-17T08:44:01;101796.54;;;22.70;50.29
27304;BME280;14791;52.392;13.092;2022-10-17T08:46:30;101791.33;;;22.77;50.31
27304;BME280;14791;52.392;13.092;2022-10-17T08:49:02;101788.37;;;22.84;50.31
27304;BME280;14791;52.392;13.092;2022-10-17T08:51:33;101798.03;;;22.92;49.86
27304;BME280;14791;52.392;13.092;2022-10-17T08:54:14;101796.80;;;23.00;49.67
27304;BME280;14791;52.392;13.092;2022-10-17T08:56:47;101792.45;;;23.07;49.35
27304;BME280;14791;52.392;13.092;2022-10-17T08:59:19;101793.94;;;23.16;49.46
27304;BME280;14791;52.392;13.092;2022-10-17T09:07:21;101802.34;;;23.36;49.62
27304;BME280;14791;52.392;13.092;2022-10-17T09:16:13;101799.41;;;23.61;48.93
27304;BME280;14791;52.392;13.092;2022-10-17T09:18:45;101805.77;;;23.70;49.08
27304;BME280;14791;52.392;13.092;2022-10-17T09:21:20;101801.45;;;23.77;48.97
27304;BME280;14791;52.392;13.092;2022-10-17T09:23:58;101808.37;;;23.85;48.94
27304;BME280;14791;52.392;13.092;2022-10-17T09:26:27;101805.37;;;23.92;48.82
27304;BME280;14791;52.392;13.092;2022-10-17T09:28:58;101796.91;;;23.99;48.74
27304;BME280;14791;52.392;13.092;2022-10-17T09:31:33;101800.86;;;24.05;48.63
27304;BME280;14791;52.392;13.092;2022-10-17T09:34:02;101794.61;;;24.13;48.49
27304;BME280;14791;52.392;13.092;2022-10-17T09:36:37;101792.96;;;24.20;48.42
27304;BME280;14791;52.392;13.092;2022-10-17T09:39:17;101782.79;;;24.26;48.24
27304;BME280;14791;52.392;13.092;2022-10-17T09:41:56;101786.93;;;24.34;48.13
27304;BME280;14791;52.392;13.092;2022-10-17T09:44:34;101783.91;;;24.41;48.09
27304;BME280;14791;52.392;13.092;2022-10-17T09:49:51;101783.72;;;24.57;47.92
27304;BME280;14791;52.392;13.092;2022-10-17T09:52:32;101783.61;;;24.67;47.66
27304;BME280;14791;52.392;13.092;2022-10-17T09:55:06;101791.31;;;24.75;47.66
27304;BME280;14791;52.392;13.092;2022-10-17T09:57:56;101788.64;;;24.83;47.60
27304;BME280;14791;52.392;13.092;2022-10-17T10:00:41;101789.04;;;24.93;47.56
27304;BME280;14791;52.392;13.092;2022-10-17T10:03:20;101790.45;;;25.05;47.48
27304;BME280;14791;52.392;13.092;2022-10-17T10:06:34;101781.61;;;25.15;47.34
27304;BME280;14791;52.392;13.092;2022-10-17T10:08:47;101789.87;;;25.28;47.23
27304;BME280;14791;52.392;13.092;2022-10-17T10:11:21;101787.88;;;25.42;47.07
27304;BME280;14791;52.392;13.092;2022-10-17T10:13:48;101786.89;;;25.55;46.89
27304;BME280;14791;52.392;13.092;2022-10-17T10:16:31;101784.17;;;25.67;46.73
27304;BME280;14791;52.392;13.092;2022-10-17T10:19:00;101791.36;;;25.81;46.57
27304;BME280;14791;52.392;13.092;2022-10-17T10:21:29;101795.17;;;25.92;46.27
27304;BME280;14791;52.392;13.092;2022-10-17T10:24:11;101785.42;;;26.02;46.05
27304;BME280;14791;52.392;13.092;2022-10-17T10:26:45;101795.52;;;26.09;45.79
27304;BME280;14791;52.392;13.092;2022-10-17T10:29:30;101792.10;;;26.16;45.67
27304;BME280;14791;52.392;13.092;2022-10-17T10:32:15;101790.74;;;26.20;45.50
27304;BME280;14791;52.392;13.092;2022-10-17T10:34:58;101795.87;;;26.27;45.45
27304;BME280;14791;52.392;13.092;2022-10-17T10:37:32;101785.25;;;26.32;45.34
27304;BME280;14791;52.392;13.092;2022-10-17T10:40:02;101781.31;;;26.39;45.21
27304;BME280;14791;52.392;13.092;2022-10-17T10:42:38;101782.48;;;26.44;45.15
27304;BME280;14791;52.392;13.092;2022-10-17T10:45:28;101785.03;;;26.50;45.04
27304;BME280;14791;52.392;13.092;2022-10-17T10:48:17;101773.59;;;26.55;44.94
27304;BME280;14791;52.392;13.092;2022-10-17T10:53:24;101769.80;;;26.68;44.69
27304;BME280;14791;52.392;13.092;2022-10-17T10:56:12;101764.64;;;26.73;44.65
27304;BME280;14791;52.392;13.092;2022-10-17T10:58:57;101768.91;;;26.80;44.57
27304;BME280;14791;52.392;13.092;2022-10-17T11:04:30;101760.80;;;26.94;44.31
27304;BME280;14791;52.392;13.092;2022-10-17T11:10:00;101756.95;;;27.08;44.21
27304;BME280;14791;52.392;13.092;2022-10-17T11:12:30;101751.09;;;27.15;44.06
27304;BME280;14791;52.392;13.092;2022-10-17T11:18:09;101752.41;;;27.31;43.79
27304;BME280;14791;52.392;13.092;2022-10-17T11:20:26;101746.53;;;27.39;43.65
27304;BME280;14791;52.392;13.092;2022-10-17T11:22:59;101751.98;;;27.47;43.52
27304;BME280;14791;52.392;13.092;2022-10-17T11:25:31;101749.17;;;27.55;43.31
27304;BME280;14791;52.392;13.092;2022-10-17T11:28:02;101747.08;;;27.61;43.18
27304;BME280;14791;52.392;13.092;2022-10-17T11:30:45;101752.67;;;27.68;43.04
27304;BME280;14791;52.392;13.092;2022-10-17T11:33:17;101756.59;;;27.73;42.88
27304;BME280;14791;52.392;13.092;2022-10-17T11:35:46;101749.33;;;27.81;43.00
27304;BME280;14791;52.392;13.092;2022-10-17T11:38:24;101751.71;;;27.88;42.63
27304;BME280;14791;52.392;13.092;2022-10-17T11:40:54;101757.12;;;27.96;42.46
27304;BME280;14791;52.392;13.092;2022-10-17T11:43:53;101764.42;;;28.04;42.59
27304;BME280;14791;52.392;13.092;2022-10-17T11:46:25;101758.87;;;28.12;42.43
27304;BME280;14791;52.392;13.092;2022-10-17T11:51:25;101757.84;;;28.28;42.11
27304;BME280;14791;52.392;13.092;2022-10-17T11:54:07;101759.69;;;28.35;41.92
27304;BME280;14791;52.392;13.092;2022-10-17T12:01:55;101746.97;;;28.53;41.54
27304;BME280;14791;52.392;13.092;2022-10-17T12:10:48;101746.13;;;28.68;41.10
27304;BME280;14791;52.392;13.092;2022-10-17T12:12:36;101749.15;;;28.73;41.09
27304;BME280;14791;52.392;13.092;2022-10-17T12:18:01;101752.84;;;28.80;40.88
27304;BME280;14791;52.392;13.092;2022-10-17T12:20:33;101733.73;;;28.82;41.04
27304;BME280;14791;52.392;13.092;2022-10-17T12:25:53;101741.19;;;28.93;40.72
27304;BME280;14791;52.392;13.092;2022-10-17T12:28:32;101725.49;;;28.97;40.56
27304;BME280;14791;52.392;13.092;2022-10-17T12:31:20;101724.52;;;29.05;40.54
27304;BME280;14791;52.392;13.092;2022-10-17T12:33:47;101719.33;;;29.21;40.60
27304;BME280;14791;52.392;13.092;2022-10-17T12:46:55;101727.77;;;31.51;38.20
27304;BME280;14791;52.392;13.092;2022-10-17T12:49:44;101733.75;;;31.88;37.61
27304;BME280;14791;52.392;13.092;2022-10-17T12:55:11;101720.36;;;32.52;36.94
27304;BME280;14791;52.392;13.092;2022-10-17T13:00:34;101718.67;;;33.02;36.16
27304;BME280;14791;52.392;13.092;2022-10-17T13:03:21;101714.25;;;33.17;35.73
27304;BME280;14791;52.392;13.092;2022-10-17T13:05:53;101716.62;;;33.30;35.39
27304;BME280;14791;52.392;13.092;2022-10-17T13:08:27;101725.83;;;33.39;35.20
27304;BME280;14791;52.392;13.092;2022-10-17T13:10:57;101726.09;;;33.47;35.16
27304;BME280;14791;52.392;13.092;2022-10-17T13:16:33;101722.52;;;33.62;34.58
27304;BME280;14791;52.392;13.092;2022-10-17T13:19:13;101717.61;;;33.64;34.45
27304;BME280;14791;52.392;13.092;2022-10-17T13:21:53;101725.05;;;33.64;34.47
27304;BME280;14791;52.392;13.092;2022-10-17T13:24:38;101717.28;;;33.63;34.26
27304;BME280;14791;52.392;13.092;2022-10-17T13:27:26;101719.34;;;33.59;34.25
27304;BME280;14791;52.392;13.092;2022-10-17T13:29:56;101712.66;;;33.57;34.27
27304;BME280;14791;52.392;13.092;2022-10-17T13:32:34;101724.96;;;33.61;34.16
27304;BME280;14791;52.392;13.092;2022-10-17T13:35:08;101718.80;;;33.59;33.86
27304;BME280;14791;52.392;13.092;2022-10-17T13:37:40;101722.75;;;33.54;33.68
27304;BME280;14791;52.392;13.092;2022-10-17T13:40:19;101726.72;;;33.49;33.76
27304;BME280;14791;52.392;13.092;2022-10-17T13:42:48;101726.52;;;33.51;33.76
27304;BME280;14791;52.392;13.092;2022-10-17T13:45:32;101722.98;;;33.53;33.60
27304;BME280;14791;52.392;13.092;2022-10-17T13:48:06;101730.12;;;33.51;33.58
27304;BME280;14791;52.392;13.092;2022-10-17T13:50:39;101739.52;;;33.50;33.70
27304;BME280;14791;52.392;13.092;2022-10-17T13:56:04;101726.69;;;33.56;33.72
27304;BME280;14791;52.392;13.092;2022-10-17T13:58:42;101722.52;;;33.62;33.75
27304;BME280;14791;52.392;13.092;2022-10-17T14:01:12;101723.79;;;33.76;33.99
27304;BME280;14791;52.392;13.092;2022-10-17T14:03:43;101732.55;;;33.88;33.73
27304;BME280;14791;52.392;13.092;2022-10-17T14:06:22;101731.58;;;34.01;33.54
27304;BME280;14791;52.392;13.092;2022-10-17T14:08:55;101735.66;;;34.15;33.36
27304;BME280;14791;52.392;13.092;2022-10-17T14:11:35;101734.05;;;34.25;33.22
27304;BME280;14791;52.392;13.092;2022-10-17T14:14:15;101741.55;;;34.34;33.03
27304;BME280;14791;52.392;13.092;2022-10-17T14:16:39;101730.47;;;34.43;32.94
27304;BME280;14791;52.392;13.092;2022-10-17T14:19:30;101734.38;;;34.54;32.85
27304;BME280;14791;52.392;13.092;2022-10-17T14:24:50;101737.82;;;34.75;32.50
27304;BME280;14791;52.392;13.092;2022-10-17T14:27:50;101744.21;;;34.84;32.33
27304;BME280;14791;52.392;13.092;2022-10-17T14:30:32;101746.36;;;34.91;32.04
27304;BME280;14791;52.392;13.092;2022-10-17T14:33:04;101740.05;;;34.93;32.23
27304;BME280;14791;52.392;13.092;2022-10-17T14:35:34;101741.73;;;34.94;31.87
27304;BME280;14791;52.392;13.092;2022-10-17T14:38:05;101746.36;;;34.91;31.52
27304;BME280;14791;52.392;13.092;2022-10-17T14:40:34;101738.19;;;34.78;31.23
27304;BME280;14791;52.392;13.092;2022-10-17T14:43:05;101738.95;;;34.58;31.24
27304;BME280;14791;52.392;13.092;2022-10-17T14:45:37;101742.30;;;34.32;31.24
27304;BME280;14791;52.392;13.092;2022-10-17T14:48:14;101743.58;;;34.04;31.28